Metar Cercanos

 

LEPA - Palma De Mallorc, Spain
Distance from station: ONO 38km
Actualización: Thu, 13-May-2021 9:00pm CEST
Despejado
Despejado
 Viento del SO
Viento: SO 9 km/h
Temperatura: 19°C
Rocío: 11°C
Humedad: 60%
Barómetro: 1012 hPa
Resumen: Despejado
Visibility: greater than 10 km
2021/05/13 19:00 LEPA 131900Z 22005KT CAVOK 19/11 Q1012 NOSIG
LEMH - Mahon/Menorca Is, Spain
Distance from station: ENE 105km
Actualización: Thu, 13-May-2021 9:00pm CEST
Despejado
Despejado
 Viento del SSO
Viento: SSO 13 km/h
Temperatura: 16°C
Rocío: 13°C
Humedad: 83%
Barómetro: 1012 hPa
Resumen: Despejado
Visibility: greater than 10 km
2021/05/13 19:00 LEMH 131900Z 20007KT CAVOK 16/13 Q1012
 
LEIB - Ibiza/Es Codola, Spain
Distance from station: OSO 165km
Actualización: Thu, 13-May-2021 9:00pm CEST
Despejado
Despejado
 Viento del SSO
Viento: SSO 17 km/h
Temperatura: 19°C
Rocío: 15°C
Humedad: 78%
Barómetro: 1012 hPa
Resumen: Despejado
Visibility: greater than 10 km
2021/05/13 19:00 LEIB 131900Z 21009KT CAVOK 19/15 Q1012 NOSIG
LEBL - Barcelona Airpor, Spain
Distance from station: NNO 225km
Actualización: Thu, 13-May-2021 9:00pm CEST
Few Clouds
Few Clouds
 Viento del OSO
Viento: OSO 37 km/h
Temperatura: 17°C
Rocío: 12°C
Humedad: 73%
Barómetro: 1011 hPa
Clouds: Few Clouds
Visibility: 10 km
Cloud details: Few Clouds 1524 m
2021/05/13 19:00 LEBL 131900Z 25020KT 9999 FEW050 17/12 Q1011 TEMPO RA
 
LEVC - Valencia (civ/Mi, Spain
Distance from station: NO 188km
Actualización: Thu, 13-May-2021 9:00pm CEST
Few Clouds
Few Clouds
 Viento del O
Viento: O 15 km/h
Temperatura: 25°C
Rocío: 6°C
Humedad: 30%
Barómetro: 1010 hPa
Clouds: Few Clouds
Visibility: 10 km
Cloud details: Few Clouds 1524 m
2021/05/13 19:00 LEVC 131900Z 27008KT 9999 FEW050 25/06 Q1010 NOSIG
LEGE - Gerona/Costa Bra, Spain
Distance from station: N 276km
Actualización: Thu, 13-May-2021 9:00pm CEST
Few Clouds
Few Clouds
 Viento del ESE
Viento: ESE 6 km/h
Temperatura: 18°C
Rocío: 9°C
Humedad: 56%
Barómetro: 1008 hPa
Clouds: Few Clouds
Visibility: 10 km
Cloud details: Few Clouds 914 m
2021/05/13 19:00 LEGE 131900Z 12003KT 070V160 9999 FEW030 18/09 Q1008
 
LEAL - Alicante/El Alte, Spain
Distance from station: OSO 344km
Actualización: Thu, 13-May-2021 9:00pm CEST
Few Clouds
Few Clouds
 Viento del S
Viento: S 7 km/h
Temperatura: 20°C
Rocío: 12°C
Humedad: 60%
Barómetro: 1012 hPa
Clouds: Few Clouds
Visibility: 10 km
Cloud details: Few Clouds 1524 m
2021/05/13 19:00 LEAL 131900Z 17004KT 140V210 9999 FEW050 20/12 Q1012 NOSIG
LEAM - Almeria Airport, Spain
Distance from station: SSO 56km
Actualización: Thu, 13-May-2021 9:00pm CEST
Despejado
Despejado
 Viento del varies
Viento: varies 4 km/h
Temperatura: 18°C
Rocío: 15°C
Humedad: 83%
Barómetro: 1013 hPa
Resumen: Despejado
Visibility: greater than 10 km
2021/05/13 19:00 LEAM 131900Z VRB02KT CAVOK 18/15 Q1013
 
LEZG - Zaragoza (mil/Ci, Spain
Distance from station: NO 431km
Actualización: Thu, 13-May-2021 9:14pm CEST
Nearby thunderstorm, Lluvia débil, Cubierto
Nearby thunderstorm, Lluvia débil, Cubierto
 Viento del ENE
Viento: ENE 11 km/h
Temperatura: 15°C
Rocío: 14°C
Humedad: 94%
Barómetro: 1010 hPa
Resumen: Nearby thunderstorm, Lluvia débil
Clouds: Cubierto
Visibility: 10 km
Cloud details: Few Clouds 914 m
Parcialmente nuboso 1524 m
Cubierto 2134 m
2021/05/13 19:14 LEZG 131914Z 07006KT 020V120 9999 VCTS -RA FEW030CB SCT050 OVC070 15/14 Q1010
LEMD - Madrid/Barajas, Spain
Distance from station: ONO 234km
Actualización: Thu, 13-May-2021 9:00pm CEST
Parcialmente nuboso
Parcialmente nuboso
 Viento del SO
Viento: SO 31 km/h
Temperatura: 18°C
Rocío: 10°C
Humedad: 60%
Barómetro: 1013 hPa
Clouds: Parcialmente nuboso
Visibility: 10 km
Cloud details: Parcialmente nuboso 2286 m
2021/05/13 19:00 LEMD 131900Z 23017KT 9999 SCT075 18/10 Q1013 NOSIG
 
LEGR - Granada Airport, Spain
Distance from station: OSO 62km
Actualización: Thu, 13-May-2021 9:00pm CEST
Few Clouds
Few Clouds
 Viento del NO
Viento: NO 19 km/h
Temperatura: 22°C
Rocío: 7°C
Humedad: 38%
Barómetro: 1016 hPa
Clouds: Few Clouds
Visibility: 10 km
Cloud details: Few Clouds 2134 m
2021/05/13 19:00 LEGR 131900Z 31010KT 280V340 9999 FEW070 22/07 Q1016
LEMG - Malaga (civ/Mil), Spain
Distance from station: OSO 227km
Actualización: Thu, 13-May-2021 9:00pm CEST
Despejado
Despejado
 Viento del ONO
Viento: ONO 19 km/h
Temperatura: 26°C
Rocío: 9°C
Humedad: 34%
Barómetro: 1014 hPa
Resumen: Despejado
Visibility: greater than 10 km
2021/05/13 19:00 LEMG 131900Z 29010KT CAVOK 26/09 Q1014 NOSIG
 
LEZL - Sevilla (civ/Mil, Spain
Distance from station: S 318km
Actualización: Thu, 13-May-2021 9:00pm CEST
Despejado
Despejado
 Viento del NNO
Viento: NNO 20 km/h
Temperatura: 24°C
Rocío: 11°C
Humedad: 44%
Barómetro: 1016 hPa
Resumen: Despejado
Visibility: greater than 10 km
2021/05/13 19:00 LEZL 131900Z 33011KT 290V350 CAVOK 24/11 Q1016 NOSIG
LEVT - Vitoria, Spain
Distance from station: NO 226km
Actualización: Thu, 13-May-2021 9:00pm CEST
Muy nuboso
Muy nuboso
 Viento del N
Viento: N 7 km/h
Temperatura: 12°C
Rocío: 10°C
Humedad: 88%
Barómetro: 1012 hPa
Clouds: Muy nuboso
Visibility: 10 km
Cloud details: Parcialmente nuboso 610 m
Muy nuboso 1524 m
2021/05/13 19:00 LEVT 131900Z 01004KT 330V050 9999 SCT020 BKN050 12/10 Q1012
 
LEBB - Bilbao/Sondica, Spain
Distance from station: NNO 235km
Actualización: Thu, 13-May-2021 9:00pm CEST
Lluvia débil, Muy nuboso
Lluvia débil, Muy nuboso
 Viento del ONO
Viento: ONO 15 km/h
Temperatura: 13°C
Rocío: 12°C
Humedad: 94%
Barómetro: 1014 hPa
Resumen: Lluvia débil
Clouds: Muy nuboso
Visibility: 7 km
Cloud details: Few Clouds 244 m
Parcialmente nuboso 457 m
Muy nuboso 610 m
2021/05/13 19:00 LEBB 131900Z 29008KT 260V320 7000 -RA FEW008 SCT015 BKN020 13/12 Q1014 TEMPO 3000 RA
LESO - San Sebastian/Fu, Spain
Distance from station: N 231km
Actualización: Thu, 13-May-2021 9:00pm CEST
Lluvia débil, Muy nuboso
Lluvia débil, Muy nuboso
 Viento del ONO
Viento: ONO 9 km/h
Temperatura: 14°C
Rocío: 12°C
Humedad: 88%
Barómetro: 1012 hPa
Resumen: Lluvia débil
Clouds: Muy nuboso
Visibility: 6 km
Cloud details: Muy nuboso 335 m
Muy nuboso 579 m
2021/05/13 19:00 LESO 131900Z 29005KT 250V330 6000 -RA BKN011 BKN019 14/12 Q1012
 
LEVD - Valladolid(Mil/C, Spain
Distance from station: ONO 239km
Actualización: Thu, 13-May-2021 9:00pm CEST
Few Clouds
Few Clouds
 Viento del O
Viento: O 35 km/h
Temperatura: 13°C
Rocío: 6°C
Humedad: 63%
Barómetro: 1013 hPa
Clouds: Few Clouds
Visibility: 10 km
Cloud details: Few Clouds 1067 m
2021/05/13 19:00 LEVD 131900Z 26019KT 9999 FEW035 13/06 Q1013
LESA - Salamanca (civ/M, Spain
Distance from station: ONO 349km
Actualización: Thu, 13-May-2021 9:00pm CEST
Few Clouds
Few Clouds
 Viento del O
Viento: O 33 km/h
Temperatura: 13°C
Rocío: 6°C
Humedad: 63%
Barómetro: 1015 hPa
Clouds: Few Clouds
Visibility: 10 km
Cloud details: Few Clouds 1311 m
2021/05/13 19:00 LESA 131900Z 27018KT 9999 FEW043 13/06 Q1015 WS ALL RWY
 
LEXJ - Santander/Paraya, Spain
Distance from station: NNO 247km
Actualización: Thu, 13-May-2021 9:15pm CEST
Muy nuboso
Muy nuboso
 Viento del NO
Viento: NO 17 km/h
Temperatura: 12°C
Rocío: 11°C
Humedad: 94%
Barómetro: 1015 hPa
Clouds: Muy nuboso
Visibility: 10 km
Cloud details: Parcialmente nuboso 305 m
Muy nuboso 610 m
2021/05/13 19:15 LEXJ 131915Z 32009KT 280V020 9999 SCT010 BKN020 12/11 Q1015
LEAS - Asturias/Aviles, Spain
Distance from station: NO 214km
Actualización: Thu, 13-May-2021 9:00pm CEST
Muy nuboso
Muy nuboso
 Viento del ONO
Viento: ONO 19 km/h
Temperatura: 11°C
Rocío: 9°C
Humedad: 88%
Barómetro: 1017 hPa
Clouds: Muy nuboso
Visibility: 10 km
Cloud details: Few Clouds 427 m
Parcialmente nuboso 701 m
Muy nuboso 1067 m
2021/05/13 19:00 LEAS 131900Z 29010KT 9999 FEW014 SCT023 BKN035 11/09 Q1017 TEMPO 1500 RA BCFG
 
LECO - La Coruna/Alvedr, Spain
Distance from station: ONO 222km
Actualización: Thu, 13-May-2021 9:00pm CEST
Parcialmente nuboso
Parcialmente nuboso
 Viento del NNO
Viento: NNO 11 km/h
Temperatura: 13°C
Rocío: 7°C
Humedad: 67%
Barómetro: 1018 hPa
Clouds: Parcialmente nuboso
Visibility: 10 km
Cloud details: Parcialmente nuboso 975 m
2021/05/13 19:00 LECO 131900Z 33006KT 290V020 9999 SCT032 13/07 Q1018 NOSIG
LEVX - Vigo/Peinador, Spain
Distance from station: O 214km
Actualización: Thu, 13-May-2021 9:00pm CEST
Muy nuboso
Muy nuboso
 Viento del O
Viento: O 6 km/h
Temperatura: 13°C
Rocío: 11°C
Humedad: 88%
Barómetro: 1018 hPa
Clouds: Muy nuboso
Visibility: 10 km
Cloud details: Muy nuboso 366 m
Muy nuboso 1341 m
2021/05/13 19:00 LEVX 131900Z 26003KT 200V330 9999 BKN012 BKN044 13/11 Q1018 NOSIG